Terminal Aerodrome Forecast
Issued by NWS Bismarck, ND

Home | Current Version | Previous Version | Text Only | Print | Product List | Glossary Off
Versions: 1 2 3 4 5 6 7 8 9 10 11 12 13 14 15 16 17 18 19 20 21 22 23 24 25 26

000
FTUS43 KBIS 310106 AAA
TAFBIS
TAF AMD
KBIS 310106Z 3101/3124 35021G27KT 3SM RA BR VCTS FEW030 OVC060CB
      TEMPO 3101/3102 5SM TSRA BR OVC030CB
     FM310200 30006KT P6SM -SHRA OVC040
     FM310500 30008KT P6SM SCT040 BKN100
     FM311000 27012G20KT P6SM SCT150
     FM311500 27014KT P6SM BKN025
     FM311800 26015KT 6SM -SHRA BR OVC025=

USA.gov is the U.S. government's official web portal to all federal, state and local government web resources and services.